Terminal Aerodrome Forecast
Issued by NWS Austin/San Antonio, TX

Home | Current Version | Previous Version | Text Only | Print | Product List | Glossary On
Versions: 1 2 3 4 5 6 7 8 9 10 11 12 13 14 15 16 17 18 19 20 21 22 23 24 25 26 27 28 29 30 31 32 33 34
000
FTUS44 KEWX 250525
TAFAUS
TAF
KAUS 250525Z 2506/2612 14004KT P6SM SCT035
     FM250900 14003KT P6SM OVC015
     FM251100 12003KT 3SM BR OVC006
     FM251200 11003KT 3SM BR OVC004
     FM251430 14008KT P6SM BKN012
     FM251730 15010KT P6SM VCSH BKN040
     FM260100 14008KT P6SM BKN040=

USA.gov is the U.S. government's official web portal to all federal, state and local government web resources and services.